createdAt,value
2019-04-06T00:01:16.718Z,85.20
2019-04-06T00:03:42.919Z,85.60
2019-04-06T00:06:09.138Z,85.90
2019-04-06T00:08:35.274Z,86.00
2019-04-06T00:11:01.325Z,86.20
2019-04-06T00:13:27.412Z,86.50
2019-04-06T00:15:53.552Z,86.90
2019-04-06T00:18:19.614Z,87.40
2019-04-06T00:20:45.732Z,87.70
2019-04-06T00:23:11.943Z,87.80
2019-04-06T00:25:44.171Z,87.80
2019-04-06T00:28:06.080Z,94.60
2019-04-06T00:30:34.143Z,88.20
2019-04-06T00:33:04.871Z,88.40
2019-04-06T00:35:30.915Z,88.30
2019-04-06T00:40:23.607Z,88.10
2019-04-06T00:42:49.752Z,88.70
2019-04-06T00:45:15.872Z,89.00
2019-04-06T00:47:41.961Z,89.60
2019-04-06T00:50:08.358Z,90.00
2019-04-06T00:52:34.615Z,90.10
2019-04-06T00:55:00.803Z,90.10
2019-04-06T00:57:27.025Z,90.10
2019-04-06T00:59:53.287Z,90.10
2019-04-06T01:02:19.455Z,90.20
2019-04-06T01:04:45.564Z,90.20
2019-04-06T01:07:11.755Z,90.30
2019-04-06T01:09:37.995Z,90.40
2019-04-06T01:12:04.047Z,90.50
2019-04-06T01:14:30.163Z,90.60
2019-04-06T01:16:56.351Z,90.70
2019-04-06T01:19:22.551Z,90.90
2019-04-06T01:21:48.687Z,91.10
2019-04-06T01:24:15.104Z,91.30
2019-04-06T01:26:41.387Z,91.60
2019-04-06T01:29:07.634Z,91.80
2019-04-06T01:31:33.754Z,92.00
2019-04-06T01:33:59.811Z,92.10
2019-04-06T01:36:25.867Z,92.30
2019-04-06T01:38:51.910Z,92.40
2019-04-06T01:41:18.027Z,92.50
2019-04-06T01:43:44.158Z,92.50
2019-04-06T01:46:10.267Z,92.50
2019-04-06T01:48:36.426Z,92.50
2019-04-06T01:51:02.611Z,92.60
2019-04-06T01:53:28.786Z,92.60
2019-04-06T01:55:54.927Z,92.60
2019-04-06T01:58:20.993Z,92.60
2019-04-06T02:01:03.854Z,92.60
2019-04-06T02:03:29.996Z,92.60
2019-04-06T02:05:56.111Z,92.60
2019-04-06T02:08:22.340Z,92.70
2019-04-06T02:10:48.479Z,92.70
2019-04-06T02:13:14.618Z,92.70
2019-04-06T02:15:40.763Z,92.70
2019-04-06T02:18:06.851Z,92.80
2019-04-06T02:20:32.967Z,92.70
2019-04-06T02:22:59.154Z,93.00
2019-04-06T02:25:25.316Z,93.00
2019-04-06T02:27:51.498Z,93.10
2019-04-06T02:30:19.566Z,93.10
2019-04-06T02:33:04.341Z,93.20
2019-04-06T02:35:38.427Z,93.20
2019-04-06T02:38:23.349Z,93.20
2019-04-06T02:40:51.409Z,93.20
2019-04-06T02:43:19.544Z,93.30
2019-04-06T02:45:45.771Z,93.30
2019-04-06T02:48:11.829Z,93.40
2019-04-06T02:50:37.882Z,93.40
2019-04-06T02:53:03.999Z,93.50
2019-04-06T02:55:30.227Z,93.60
2019-04-06T02:57:56.443Z,93.70
2019-04-06T03:00:22.529Z,93.70
2019-04-06T03:02:48.896Z,93.80
2019-04-06T03:05:15.101Z,93.90
2019-04-06T03:07:41.338Z,93.90
2019-04-06T03:10:08.170Z,94.00
2019-04-06T03:12:34.436Z,94.00
2019-04-06T03:15:00.778Z,94.10
2019-04-06T03:17:26.873Z,94.00
2019-04-06T03:19:52.992Z,94.10
2019-04-06T03:22:19.117Z,94.10
2019-04-06T03:24:45.251Z,94.20
2019-04-06T03:27:11.370Z,94.20
2019-04-06T03:29:37.607Z,94.30
2019-04-06T03:32:04.066Z,94.30
2019-04-06T03:34:30.201Z,94.20
2019-04-06T03:36:56.298Z,94.30
2019-04-06T03:39:22.525Z,94.20
2019-04-06T03:41:48.815Z,94.20
2019-04-06T03:44:14.873Z,94.20
2019-04-06T03:46:41.233Z,94.10
2019-04-06T03:49:07.399Z,94.10
2019-04-06T03:51:33.456Z,94.10
2019-04-06T03:53:59.539Z,94.00
2019-04-06T03:56:25.598Z,94.00
2019-04-06T03:58:52.355Z,94.00
2019-04-06T04:01:18.904Z,94.00
2019-04-06T04:03:44.953Z,93.90
2019-04-06T04:06:11.012Z,93.90
2019-04-06T04:08:37.068Z,93.80
2019-04-06T04:11:03.328Z,93.90
2019-04-06T04:13:29.378Z,93.80
2019-04-06T04:15:56.885Z,93.80
2019-04-06T04:18:23.420Z,93.80
2019-04-06T04:20:49.720Z,93.80
2019-04-06T04:23:15.948Z,93.90
2019-04-06T04:25:42.088Z,93.90
2019-04-06T04:28:08.399Z,93.90
2019-04-06T04:30:34.971Z,93.70
2019-04-06T04:33:01.210Z,93.90
2019-04-06T04:35:27.264Z,93.90
2019-04-06T04:37:53.408Z,93.90
2019-04-06T04:40:19.467Z,93.90
2019-04-06T04:42:45.702Z,93.90
2019-04-06T04:45:12.497Z,93.90
2019-04-06T04:47:38.547Z,93.90
2019-04-06T04:50:06.111Z,94.00
2019-04-06T04:52:32.156Z,94.10
2019-04-06T04:54:58.215Z,94.20
2019-04-06T04:57:24.268Z,94.30
2019-04-06T04:59:50.322Z,94.40
2019-04-06T05:02:16.384Z,94.50
2019-04-06T05:04:43.327Z,94.70
2019-04-06T05:07:09.387Z,94.90
2019-04-06T05:09:35.751Z,95.00
2019-04-06T05:12:01.893Z,95.20
2019-04-06T05:14:54.719Z,95.50
2019-04-06T05:17:20.780Z,95.70
2019-04-06T05:19:46.832Z,95.90
2019-04-06T05:22:12.878Z,96.00
2019-04-06T05:24:38.935Z,96.20
2019-04-06T05:27:05.088Z,96.30
2019-04-06T05:29:33.058Z,96.60
2019-04-06T05:31:59.247Z,96.70
2019-04-06T05:34:25.706Z,96.90
2019-04-06T05:36:51.845Z,96.90
2019-04-06T05:39:18.027Z,97.10
2019-04-06T05:41:44.075Z,97.20
2019-04-06T05:44:10.159Z,97.30
2019-04-06T05:46:36.220Z,97.40
2019-04-06T05:49:02.280Z,97.50
2019-04-06T05:51:28.423Z,97.50
2019-04-06T05:53:54.523Z,97.50
2019-04-06T05:56:20.587Z,97.50
2019-04-06T05:58:46.644Z,97.40
2019-04-06T06:01:12.708Z,97.30
2019-04-06T06:03:41.080Z,97.20
2019-04-06T06:06:06.746Z,97.10
2019-04-06T06:08:32.792Z,97.10
2019-04-06T06:10:58.871Z,97.20
2019-04-06T06:13:25.064Z,97.10
2019-04-06T06:15:51.190Z,96.90
2019-04-06T06:18:25.687Z,96.70
2019-04-06T06:20:45.228Z,96.60
2019-04-06T06:23:11.622Z,96.50
2019-04-06T06:25:37.671Z,96.40
2019-04-06T06:28:13.889Z,96.40
2019-04-06T06:30:31.691Z,96.50
2019-04-06T06:32:57.822Z,96.30
2019-04-06T06:35:23.913Z,95.40
2019-04-06T06:37:50.102Z,94.40
2019-04-06T06:40:16.180Z,93.90
2019-04-06T06:42:42.231Z,94.20
2019-04-06T06:45:08.845Z,93.90
2019-04-06T06:47:35.072Z,93.70
2019-04-06T06:50:02.021Z,93.60
2019-04-06T06:52:28.183Z,93.50
2019-04-06T06:54:54.255Z,93.30
2019-04-06T06:57:20.307Z,93.10
2019-04-06T06:59:46.363Z,93.10
2019-04-06T07:02:12.504Z,93.30
2019-04-06T07:04:38.667Z,93.40
2019-04-06T07:07:04.731Z,93.30
2019-04-06T07:09:30.910Z,92.30
2019-04-06T07:11:57.150Z,92.80
2019-04-06T07:14:23.315Z,92.40
2019-04-06T07:16:49.367Z,91.80
2019-04-06T07:21:41.898Z,90.50
2019-04-06T07:24:07.960Z,90.70
2019-04-06T07:26:34.007Z,90.30
2019-04-06T07:29:00.128Z,90.20
2019-04-06T07:31:26.334Z,89.90
2019-04-06T07:33:52.394Z,89.80
2019-04-06T07:36:18.455Z,89.50
2019-04-06T07:38:44.507Z,88.80
2019-04-06T07:46:03.429Z,86.40
2019-04-06T07:50:56.023Z,85.60
2019-04-06T07:55:48.516Z,84.10
2019-04-06T07:58:14.805Z,82.90
2019-04-06T08:00:41.036Z,82.20
2019-04-06T08:03:07.188Z,82.30
2019-04-06T08:05:33.452Z,82.10
2019-04-06T08:15:19.167Z,78.80
2019-04-06T08:17:45.219Z,79.00
2019-04-06T08:22:37.918Z,78.60
2019-04-06T08:25:05.087Z,77.70
2019-04-06T08:29:57.789Z,76.90
2019-04-06T08:32:23.922Z,77.70
2019-04-06T08:34:49.975Z,76.80
2019-04-06T08:37:16.106Z,76.60
2019-04-06T08:39:42.289Z,75.40
2019-04-06T08:42:08.423Z,71.70
2019-04-06T08:44:34.767Z,72.40
2019-04-06T08:47:00.928Z,72.80
2019-04-06T08:49:27.055Z,72.50
2019-04-06T08:51:53.100Z,72.90
2019-04-06T08:59:13.578Z,72.10
2019-04-06T09:06:33.091Z,71.30
2019-04-06T09:08:59.156Z,70.70
2019-04-06T09:11:25.215Z,69.00
2019-04-06T09:13:51.266Z,67.90
2019-04-06T09:18:43.871Z,64.20
2019-04-06T09:21:10.539Z,63.40
2019-04-06T09:23:36.681Z,63.10
2019-04-06T09:26:02.935Z,62.70
2019-04-06T09:28:28.996Z,63.00
2019-04-06T09:30:55.083Z,63.40
2019-04-06T09:33:21.259Z,63.60
2019-04-06T09:35:47.315Z,64.00
2019-04-06T09:43:13.723Z,61.60
2019-04-06T09:45:42.117Z,61.60
2019-04-06T09:48:15.940Z,60.60
2019-04-06T09:50:46.528Z,60.30
2019-04-06T09:53:26.851Z,60.40
2019-04-06T09:55:54.802Z,59.90
2019-04-06T09:58:28.449Z,60.10
2019-04-06T10:00:56.505Z,60.70
2019-04-06T10:03:41.104Z,59.50
2019-04-06T10:06:25.704Z,59.00
2019-04-06T10:08:56.758Z,59.90
2019-04-06T10:11:33.731Z,60.10
2019-04-06T10:14:16.919Z,60.40
2019-04-06T10:16:44.915Z,60.60
2019-04-06T10:19:15.596Z,60.20
2019-04-06T10:21:43.667Z,59.80
2019-04-06T10:24:28.468Z,63.10
2019-04-06T10:26:56.527Z,59.90
2019-04-06T10:29:33.311Z,60.50
2019-04-06T10:32:01.295Z,61.20
2019-04-06T10:34:41.015Z,59.50
2019-04-06T10:37:18.044Z,65.10
2019-04-06T10:39:51.942Z,63.20
2019-04-06T10:42:19.979Z,63.60
2019-04-06T10:44:57.114Z,67.50
2019-04-06T10:47:30.982Z,66.60
2019-04-06T10:50:15.483Z,63.30
2019-04-06T10:52:43.598Z,63.30
2019-04-06T10:55:28.133Z,64.20
2019-04-06T10:58:08.327Z,64.50
2019-04-06T11:00:51.444Z,66.70
2019-04-06T11:03:22.260Z,65.80
2019-04-06T11:06:05.216Z,66.00
2019-04-06T11:08:36.006Z,79.40
2019-04-06T11:11:04.040Z,64.20
2019-04-06T11:13:32.004Z,71.30
2019-04-06T11:16:00.186Z,66.60
2019-04-06T11:18:44.911Z,61.00
2019-04-06T11:21:19.216Z,65.30
2019-04-06T11:23:49.841Z,69.90
2019-04-06T11:26:34.503Z,54.00
2019-04-06T11:29:11.523Z,58.30
2019-04-06T11:31:39.504Z,52.60
2019-04-06T11:37:09.777Z,75.90
2019-04-06T11:39:46.727Z,75.90
2019-04-06T11:44:49.397Z,51.90
2019-04-06T11:50:06.967Z,50.60
2019-04-06T11:52:35.073Z,49.90
2019-04-06T11:58:06.076Z,49.10
2019-04-06T12:00:39.811Z,48.80
2019-04-06T12:05:47.923Z,47.80
2019-04-06T12:08:19.053Z,47.20
2019-04-06T12:15:47.255Z,47.60
2019-04-06T12:18:18.593Z,47.80
2019-04-06T12:23:37.543Z,47.60
2019-04-06T12:28:46.682Z,46.80
2019-04-06T12:31:23.659Z,46.10
2019-04-06T12:34:08.187Z,46.00
2019-04-06T12:39:24.427Z,45.80
2019-04-06T12:49:23.388Z,45.90
2019-04-06T12:52:06.254Z,45.90
2019-04-06T12:54:40.019Z,46.00
2019-04-06T12:57:08.083Z,45.50
2019-04-06T12:59:41.899Z,45.30
2019-04-06T13:02:18.719Z,45.90
2019-04-06T13:04:46.742Z,45.80
2019-04-06T13:12:35.914Z,45.30
2019-04-06T13:15:05.119Z,44.70
2019-04-06T13:20:08.179Z,44.70
2019-04-06T13:22:54.925Z,44.90
2019-04-06T13:25:32.081Z,44.20
2019-04-06T13:28:03.083Z,44.10
2019-04-06T13:30:36.628Z,43.50
2019-04-06T13:33:10.270Z,43.30
2019-04-06T13:41:20.512Z,43.90
2019-04-06T13:51:44.300Z,42.30
2019-04-06T13:54:14.830Z,42.60
2019-04-06T13:56:59.359Z,42.60
2019-04-06T13:59:27.411Z,42.20
2019-04-06T14:04:29.871Z,42.30
2019-04-06T14:09:35.747Z,41.30
2019-04-06T14:17:16.218Z,41.60
2019-04-06T14:19:59.429Z,41.20
2019-04-06T14:25:17.054Z,41.20
2019-04-06T14:28:00.083Z,41.10
2019-04-06T14:30:31.091Z,40.60
2019-04-06T14:33:05.182Z,40.30
2019-04-06T14:35:35.887Z,40.60
2019-04-06T14:58:53.659Z,39.70
2019-04-06T15:01:36.990Z,39.90
2019-04-06T15:09:26.743Z,40.10
2019-04-06T15:14:56.417Z,40.40
2019-04-06T15:19:55.235Z,39.80
2019-04-06T15:22:26.163Z,38.60
2019-04-06T15:25:03.272Z,38.80
2019-04-06T15:27:31.228Z,39.40
2019-04-06T15:32:59.990Z,40.60
2019-04-06T15:35:44.487Z,42.90
2019-04-06T15:41:02.110Z,47.00
2019-04-06T15:43:46.948Z,47.80
2019-04-06T15:46:20.739Z,48.30
2019-04-06T15:49:00.528Z,48.60
2019-04-06T15:51:34.167Z,48.60
2019-04-06T15:54:18.875Z,48.80
2019-04-06T15:56:47.116Z,47.90
2019-04-06T15:59:20.874Z,48.00
2019-04-06T16:02:00.310Z,47.20
2019-04-06T16:04:24.017Z,47.60
2019-04-06T16:06:58.300Z,47.40
2019-04-06T16:17:12.535Z,46.30
2019-04-06T16:19:40.860Z,46.70
2019-04-06T16:24:48.882Z,46.70
2019-04-06T16:29:48.313Z,46.10
2019-04-06T16:32:32.914Z,46.00
2019-04-06T16:37:41.681Z,45.90
2019-04-06T16:40:10.513Z,46.00
2019-04-06T16:42:38.620Z,46.30
2019-04-06T16:45:15.902Z,45.90
2019-04-06T16:50:21.367Z,46.50
2019-04-06T16:52:55.287Z,46.80
2019-04-06T16:55:23.431Z,46.60
2019-04-06T16:57:51.395Z,47.10
2019-04-06T17:07:57.255Z,47.60
2019-04-06T17:18:07.256Z,48.10
2019-04-06T17:23:16.191Z,48.60
2019-04-06T17:25:56.094Z,49.10
2019-04-06T17:28:29.915Z,49.20
2019-04-06T17:33:41.555Z,49.70
2019-04-06T17:36:24.495Z,49.90
2019-04-06T17:41:21.311Z,50.40
2019-04-06T17:43:49.541Z,50.60
2019-04-06T17:46:23.355Z,51.00
2019-04-06T17:49:06.625Z,51.10
2019-04-06T17:51:43.562Z,51.30
2019-04-06T17:54:11.844Z,51.60
2019-04-06T17:56:56.363Z,52.00
2019-04-06T17:59:41.496Z,51.90
2019-04-06T18:02:26.035Z,52.20
2019-04-06T18:07:22.455Z,52.30
2019-04-06T18:09:53.203Z,53.00
2019-04-06T18:12:21.370Z,53.60
2019-04-06T18:14:47.423Z,54.10
2019-04-06T18:17:13.877Z,54.40
2019-04-06T18:22:06.636Z,55.10
2019-04-06T18:26:59.243Z,55.40
2019-04-06T18:29:25.399Z,55.50
2019-04-06T18:34:19.923Z,55.90
2019-04-06T18:37:04.278Z,56.50
2019-04-06T18:51:43.364Z,57.90
2019-04-06T18:54:09.918Z,57.90
2019-04-06T18:56:36.131Z,58.60
2019-04-06T18:59:02.180Z,58.50
2019-04-06T19:01:28.261Z,59.00
2019-04-06T19:03:54.439Z,60.50
2019-04-06T19:06:20.493Z,59.50
2019-04-06T19:08:46.843Z,60.00
2019-04-06T19:11:16.388Z,60.50
2019-04-06T19:16:09.444Z,60.10
2019-04-06T19:18:35.615Z,60.30
2019-04-06T19:21:01.743Z,60.50
2019-04-06T19:23:28.399Z,61.10
2019-04-06T19:25:54.548Z,61.50
2019-04-06T19:28:20.959Z,62.20
2019-04-06T19:30:47.175Z,62.90
2019-04-06T19:33:22.724Z,63.00
2019-04-06T19:35:41.515Z,63.10
2019-04-06T19:38:07.668Z,63.50
2019-04-06T19:40:33.846Z,64.10
2019-04-06T19:43:00.047Z,64.00
2019-04-06T19:45:26.263Z,63.70
2019-04-06T19:47:52.857Z,64.00
2019-04-06T19:50:19.158Z,65.10
2019-04-06T19:52:45.813Z,65.30
2019-04-06T19:55:12.703Z,65.60
2019-04-06T20:02:33.386Z,66.10
2019-04-06T20:07:26.039Z,66.30
2019-04-06T20:09:52.175Z,66.50
2019-04-06T20:17:12.202Z,68.00
2019-04-06T20:22:04.835Z,68.90
2019-04-06T20:24:30.921Z,69.10
2019-04-06T20:26:56.979Z,69.90
2019-04-06T20:31:49.943Z,70.60
2019-04-06T20:39:09.250Z,71.30
2019-04-06T20:41:35.821Z,71.30
2019-04-06T20:44:01.986Z,71.80
2019-04-06T20:46:28.579Z,72.20
2019-04-06T20:48:54.783Z,73.10
2019-04-06T20:51:21.432Z,73.40
2019-04-06T20:53:47.792Z,73.90
2019-04-06T20:56:14.518Z,74.30
2019-04-06T20:58:41.273Z,74.50
2019-04-06T21:08:28.586Z,75.00
2019-04-06T21:15:47.631Z,75.50
2019-04-06T21:23:07.764Z,77.20
2019-04-06T21:25:34.363Z,77.40
2019-04-06T21:28:00.960Z,77.90
2019-04-06T21:30:27.768Z,78.40
2019-04-06T21:32:54.110Z,79.20
2019-04-06T21:35:20.308Z,79.60
2019-04-06T21:42:39.292Z,79.30
2019-04-06T21:45:06.339Z,80.00
2019-04-06T21:49:59.156Z,79.90
2019-04-06T21:52:25.282Z,79.90
2019-04-06T21:54:51.327Z,80.20
2019-04-06T21:57:17.431Z,80.30
2019-04-06T22:02:10.063Z,81.20
2019-04-06T22:16:50.607Z,82.00
2019-04-06T22:19:17.013Z,82.50
2019-04-06T22:21:43.207Z,84.10
2019-04-06T22:24:09.551Z,84.40
2019-04-06T22:29:03.107Z,85.50
2019-04-06T22:31:29.175Z,86.00
2019-04-06T22:33:55.631Z,86.10
2019-04-06T22:41:15.572Z,85.50
2019-04-06T22:43:41.735Z,85.40
2019-04-06T22:46:07.904Z,85.70
2019-04-06T22:48:34.652Z,85.90
2019-04-06T22:51:00.880Z,86.20
2019-04-06T22:53:27.183Z,86.70
2019-04-06T22:55:53.239Z,86.90
2019-04-06T22:58:19.729Z,87.10
2019-04-06T23:00:48.531Z,88.30
2019-04-06T23:03:33.457Z,89.20
2019-04-06T23:06:01.539Z,88.80
2019-04-06T23:08:27.783Z,88.40
2019-04-06T23:13:20.377Z,88.30
2019-04-06T23:15:47.929Z,88.10
2019-04-06T23:18:14.399Z,88.10
2019-04-06T23:20:40.443Z,88.20
2019-04-06T23:25:34.894Z,89.00
2019-04-06T23:28:01.038Z,89.00
2019-04-06T23:30:27.183Z,89.10
2019-04-06T23:32:53.513Z,89.50
2019-04-06T23:37:46.115Z,89.20
2019-04-06T23:40:12.353Z,90.00
2019-04-06T23:42:38.811Z,90.20
2019-04-06T23:49:58.783Z,89.50
